EGCCLPMA

Guest
Details From EGCC - Manchester
To LPMA - Madeira
Flight Number -
Tags Generated
Created
Modified
Stats Distance 1,388 nm / 2,570 km
Max Altitude 0 ft / 0 m
Waypoints 5
Social Downloads 8
Likes 0
Share VATSIM

Download

Looking for another format? Having issues loading an existing format? Contact us
Advertisement - Login to hide

Notes

Generated

Route

EGCC MABUG LAPEX MAD LPMA

ID Type Via Altitude Latitude Longitude Leg Dist Tot Dist Heading (true) Name
O EGCC APT - 0 ft / 0 m 53.33197˚ -2.31066˚ - 0 nm - -
MABUG FIX - 0 ft / 0 m 49.78472˚ -5.93667˚ 252 nm 252 nm 214° / 211° -
LAPEX FIX - 0 ft / 0 m 47.00000˚ -8.00000˚ 186 nm 438 nm 207° / 205° -
MAD NDB - 0 ft / 0 m 32.74813˚ -16.70651˚ 943 nm 1382 nm 208° / 202° MADEIRA NDB
O LPMA APT - 0 ft / 0 m 32.68900˚ -16.78409˚ 5 nm 1387 nm 228° / 228° -

Altitude Profile

Advertisement - Login to hide

Weather


0- 5 10 15 20 25 30 35+ Temperature / ° C

Clouds and Precipitation
Forecast for 2018-05-22 00:00 UTC. Updated 6 hours ago

Ground ~20,000 ft ~40,000 ft Winds

EGCC

Details ICAO EGCC (MAN)
Name Manchester Intl
Region United Kingdom
Timezone Europe/London (UTC+1.0)
Stats Elevation 257 ft / 78 m (AMSL)
Location 53.347141° -2.283954°
Runways 2
Magnetic Variation 1.393° W

METAR

EGCC 220420Z AUTO 07003KT 9999 NCD 10/09 Q1018 NOSIG

Decode

TAF

TAF EGCC 212253Z 2200/2306 VRB03KT 9999 FEW045 PROB40 2202/2209 7000 BECMG 2205/2208 04010KT PROB40 2219/2306 7000

Decode

Departure Runways

ID Width Length Bearing (true) Bearing (mag) Surface Threshold Offset Overrun Length
05L 151 ft / 46 m 9,981 ft / 3,042 m 50.99° 52.38° Asphalt 1,401 ft / 427 m 0 ft / 0 m
05R 151 ft / 46 m 9,952 ft / 3,033 m 50.97° 52.36° Asphalt 0 ft / 0 m 26 ft / 8 m
23L 151 ft / 46 m 9,952 ft / 3,033 m 231.00° 232.39° Asphalt 561 ft / 171 m 0 ft / 0 m
23R 151 ft / 46 m 9,981 ft / 3,042 m 231.02° 232.41° Asphalt 597 ft / 182 m 0 ft / 0 m

LPMA

Details ICAO LPMA (FNC)
Name Madeira
Region Portugal
Timezone Atlantic/Madeira (UTC+1.0)
Stats Elevation 192 ft / 59 m (AMSL)
Location 32.697704° -16.774449°
Runways 1
Magnetic Variation 4.928° W

METAR

LPMA 220430Z 35017KT 9999 SCT015 17/14 Q1014

Decode

TAF

TAF LPMA 212300Z 2200/2224 VRB05KT 9999 SCT015 TEMPO 2200/2206 6000 -RADZ SCT008 BKN013 BECMG 2202/2205 35013KT PROB30 TEMPO 2202/2212 36017G27KT BECMG 2210/2212 VRB05KT SCT015 BKN030

Decode

Destination Runways

ID Width Length Bearing (true) Bearing (mag) Surface Threshold Offset Overrun Length
05 141 ft / 43 m 8,683 ft / 2,647 m 42.98° 47.91° Asphalt 472 ft / 144 m 0 ft / 0 m
23 141 ft / 43 m 8,683 ft / 2,647 m 222.99° 227.92° Asphalt 466 ft / 142 m 0 ft / 0 m

Popular Alternatives